Time;durP1;ratioP1;P1;durP2;ratioP2;P2;SDS_P1;SDS_P2;PMS_P1;PMS_P2;Temp;Humidity;BMP_temperature;BMP_pressure;BME280_temperature;BME280_humidity;BME280_pressure;Samples;Min_cycle;Max_cycle;Signal;HPM_P1;HPM_P2
2022/12/19 00:01:29;;;;;;;;;;;;;;;-9.04;99.72;101042.00;8384586;28;19920;-74
2022/12/19 00:05:37;;;;;;;;;;;;;;;-9.05;99.50;101028.09;8355609;28;19924;-74
2022/12/19 00:09:39;;;;;;;;;;;;;;;-9.02;99.80;101022.56;8386586;28;19928;-74
2022/12/19 00:13:40;;;;;;;;;;;;;;;-8.99;99.97;101017.03;8386067;28;19920;-74
2022/12/19 00:17:46;;;;;;;;;;;;;;;-9.01;99.92;101008.53;8368042;28;19968;-74
2022/12/19 00:21:47;;;;;;;;;;;;;;;-8.98;99.61;101010.84;8372390;28;19928;-74
2022/12/19 00:25:48;;;;;;;;;;;;;;;-9.00;99.61;101031.13;8382728;28;19920;-76
2022/12/19 00:29:49;;;;;;;;;;;;;;;-9.00;99.59;101015.41;8383188;28;19989;-74
2022/12/19 00:33:50;;;;;;;;;;;;;;;-8.97;99.61;101025.59;8375094;28;20027;-73
2022/12/19 00:37:51;;;;;;;;;;;;;;;-8.97;100.00;101025.59;8372982;28;19920;-74
2022/12/19 00:41:52;;;;;;;;;;;;;;;-9.02;100.00;101022.56;8382702;28;19920;-74
2022/12/19 00:45:56;;;;;;;;;;;;;;;-8.99;100.00;101022.28;8375597;28;19921;-74
2022/12/19 00:49:57;;;;;;;;;;;;;;;-8.99;99.81;101021.47;8368025;28;19965;-74
2022/12/19 00:53:58;;;;;;;;;;;;;;;-8.98;99.88;101029.19;8370519;28;20252;-74
2022/12/19 00:57:59;;;;;;;;;;;;;;;-9.00;99.77;101025.88;8369971;28;20298;-74
2022/12/19 01:02:02;;;;;;;;;;;;;;;-9.06;100.00;101021.19;8377694;28;19928;-75
2022/12/19 01:06:04;;;;;;;;;;;;;;;-9.03;100.00;101007.81;8370974;28;19920;-76
2022/12/19 01:10:05;;;;;;;;;;;;;;;-9.04;99.79;101014.00;8342815;28;19921;-75
2022/12/19 01:14:06;;;;;;;;;;;;;;;-9.04;99.52;101014.00;8379588;28;19920;-73
2022/12/19 01:18:09;;;;;;;;;;;;;;;-9.04;99.74;101014.00;8380444;28;19924;-76
2022/12/19 01:22:10;;;;;;;;;;;;;;;-9.07;99.75;101014.28;8380786;28;20281;-75
2022/12/19 01:26:11;;;;;;;;;;;;;;;-9.12;99.70;101016.50;8373143;28;20201;-74
2022/12/19 01:30:12;;;;;;;;;;;;;;;-9.13;99.72;101020.06;8371908;28;19928;-75
2022/12/19 01:34:13;;;;;;;;;;;;;;;-9.15;99.73;101001.06;8372586;28;19960;-74
2022/12/19 01:38:15;;;;;;;;;;;;;;;-9.15;99.43;100980.16;8376717;28;19927;-74
2022/12/19 01:42:16;;;;;;;;;;;;;;;-9.15;99.33;100966.22;8378677;28;19927;-74
2022/12/19 01:46:17;;;;;;;;;;;;;;;-9.16;99.31;100973.25;8379940;28;19966;-74
2022/12/19 01:50:18;;;;;;;;;;;;;;;-9.17;99.55;100961.13;8373148;28;19974;-74
2022/12/19 01:54:21;;;;;;;;;;;;;;;-9.15;99.54;100948.75;8380318;28;19927;-75
2022/12/19 01:58:22;;;;;;;;;;;;;;;-9.16;99.70;100947.06;8385395;28;20267;-74
2022/12/19 02:02:33;;;;;;;;;;;;;;;-9.13;99.23;100941.56;8362372;28;19921;-74
2022/12/19 02:06:34;;;;;;;;;;;;;;;-9.15;99.39;100933.03;8348848;28;20003;-74
2022/12/19 02:10:34;;;;;;;;;;;;;;;-9.08;99.04;100913.19;8373779;28;19921;-74
2022/12/19 02:14:35;;;;;;;;;;;;;;;-9.09;99.39;100914.13;8373154;28;19946;-74
2022/12/19 02:18:54;;;;;;;;;;;;;;;-9.09;99.19;100911.53;8378701;28;19920;-74
2022/12/19 02:22:55;;;;;;;;;;;;;;;-9.07;99.33;100911.38;8373047;28;19921;-74
2022/12/19 02:27:11;;;;;;;;;;;;;;;-9.08;98.92;100902.72;8364998;28;20003;-75
2022/12/19 02:31:32;;;;;;;;;;;;;;;-9.07;99.06;100888.66;8381198;28;20263;-74
2022/12/19 02:35:39;;;;;;;;;;;;;;;-9.02;99.07;100889.06;8376153;28;20325;-75
2022/12/19 02:39:58;;;;;;;;;;;;;;;-9.01;98.77;100909.06;8377822;28;19932;-74
2022/12/19 02:43:59;;;;;;;;;;;;;;;-9.01;99.04;100882.88;8378778;28;19920;-74
2022/12/19 02:48:00;;;;;;;;;;;;;;;-9.01;98.76;100882.88;8368444;28;20400;-74
2022/12/19 02:52:19;;;;;;;;;;;;;;;-8.94;99.00;100877.09;8374219;28;19920;-74
2022/12/19 02:56:20;;;;;;;;;;;;;;;-8.94;98.51;100871.84;8380738;28;19928;-75
2022/12/19 03:00:21;;;;;;;;;;;;;;;-8.99;98.63;100870.44;8345772;28;19920;-76
2022/12/19 03:04:31;;;;;;;;;;;;;;;-8.95;98.82;100844.84;8357720;28;19924;-75
2022/12/19 03:08:36;;;;;;;;;;;;;;;-8.99;98.88;100857.38;8368950;28;19967;-75
2022/12/19 03:12:38;;;;;;;;;;;;;;;-9.00;98.85;100858.34;8371407;28;19927;-74
2022/12/19 03:16:39;;;;;;;;;;;;;;;-8.94;98.97;100856.13;8370687;28;19920;-74
2022/12/19 03:20:49;;;;;;;;;;;;;;;-8.93;98.99;100842.09;8364901;28;20389;-75
2022/12/19 03:24:49;;;;;;;;;;;;;;;-8.90;99.16;100833.94;8371231;28;19921;-75
2022/12/19 03:28:53;;;;;;;;;;;;;;;-8.89;99.15;100835.59;8381266;28;19920;-75
2022/12/19 03:32:53;;;;;;;;;;;;;;;-8.88;98.81;100829.41;8382560;28;19970;-74
2022/12/19 03:36:55;;;;;;;;;;;;;;;-8.86;98.66;100827.44;8383877;28;20018;-74
2022/12/19 03:40:56;;;;;;;;;;;;;;;-8.88;98.99;100829.41;8382773;28;19921;-74
2022/12/19 03:44:57;;;;;;;;;;;;;;;-8.86;99.23;100827.44;8366446;28;20288;-74
2022/12/19 03:48:57;;;;;;;;;;;;;;;-8.82;98.82;100818.34;8385438;28;19920;-75
2022/12/19 03:53:05;;;;;;;;;;;;;;;-8.83;98.69;100811.47;8380877;28;19928;-73
2022/12/19 03:57:07;;;;;;;;;;;;;;;-8.86;99.23;100806.50;8379734;28;20371;-74
2022/12/19 04:01:08;;;;;;;;;;;;;;;-8.86;98.87;100806.50;8367351;28;19931;-74
2022/12/19 04:05:11;;;;;;;;;;;;;;;-8.84;98.96;100804.56;8380127;28;19920;-74
2022/12/19 04:09:12;;;;;;;;;;;;;;;-8.81;99.47;100799.03;8368591;28;19920;-73
2022/12/19 04:13:14;;;;;;;;;;;;;;;-8.82;99.19;100792.16;8355566;28;19920;-74
2022/12/19 04:17:21;;;;;;;;;;;;;;;-8.84;99.57;100783.63;8373655;28;19920;-73
2022/12/19 04:21:27;;;;;;;;;;;;;;;-8.78;99.20;100777.81;8384197;28;19920;-74
2022/12/19 04:25:28;;;;;;;;;;;;;;;-8.82;99.23;100776.44;8378315;28;20337;-74
2022/12/19 04:29:30;;;;;;;;;;;;;;;-8.84;99.59;100783.63;8383429;28;20020;-74
2022/12/19 04:33:31;;;;;;;;;;;;;;;-8.85;99.43;100787.22;8363385;28;19920;-74
2022/12/19 04:37:32;;;;;;;;;;;;;;;-8.83;99.46;100790.53;8377910;28;20016;-75
2022/12/19 04:41:33;;;;;;;;;;;;;;;-8.86;99.62;100786.38;8381012;28;19920;-73
2022/12/19 04:45:33;;;;;;;;;;;;;;;-8.79;99.71;100781.41;8361005;28;20378;-74
2022/12/19 04:49:34;;;;;;;;;;;;;;;-8.78;99.90;100772.59;8388284;28;19920;-73
2022/12/19 04:53:35;;;;;;;;;;;;;;;-8.67;99.75;100759.31;8389323;28;20397;-74
2022/12/19 04:57:36;;;;;;;;;;;;;;;-8.62;99.92;100751.84;8368417;28;19946;-74
2022/12/19 05:01:37;;;;;;;;;;;;;;;-8.62;99.55;100738.75;8362485;28;19927;-74
2022/12/19 05:05:38;;;;;;;;;;;;;;;-8.60;99.96;100744.66;8351342;28;20401;-73
2022/12/19 05:09:39;;;;;;;;;;;;;;;-8.59;99.74;100730.59;8379467;28;19921;-75
2022/12/19 05:13:39;;;;;;;;;;;;;;;-8.52;100.00;100734.28;8372610;28;20275;-73
2022/12/19 05:17:40;;;;;;;;;;;;;;;-8.48;100.00;100743.50;8383768;28;19963;-74
2022/12/19 05:21:41;;;;;;;;;;;;;;;-8.49;99.99;100741.84;8361163;28;19920;-73
2022/12/19 05:25:42;;;;;;;;;;;;;;;-8.45;99.98;100737.94;8371067;28;20377;-74
2022/12/19 05:29:43;;;;;;;;;;;;;;;-8.44;100.00;100723.88;8382837;28;20014;-74
2022/12/19 05:33:43;;;;;;;;;;;;;;;-8.41;100.00;100718.38;8350529;28;19927;-74
2022/12/19 05:37:44;;;;;;;;;;;;;;;-8.34;100.00;100714.16;8382611;28;19920;-74
2022/12/19 05:41:45;;;;;;;;;;;;;;;-8.32;100.00;100720.09;8383801;28;20268;-74
2022/12/19 05:45:46;;;;;;;;;;;;;;;-8.24;100.00;100708.81;8383355;28;19921;-75
2022/12/19 05:49:46;;;;;;;;;;;;;;;-8.21;100.00;100714.59;8375005;28;20390;-73
2022/12/19 05:53:47;;;;;;;;;;;;;;;-8.19;100.00;100706.56;8368008;28;19952;-74
2022/12/19 05:57:48;;;;;;;;;;;;;;;-8.18;100.00;100714.28;8382889;28;19920;-74
2022/12/19 06:01:49;;;;;;;;;;;;;;;-8.11;100.00;100704.88;8369919;28;19920;-74
2022/12/19 06:05:49;;;;;;;;;;;;;;;-8.03;100.00;100706.72;8307025;28;20717;-74
2022/12/19 06:09:50;;;;;;;;;;;;;;;-7.99;100.00;100691.53;8381428;28;19920;-75
2022/12/19 06:13:51;;;;;;;;;;;;;;;-7.95;100.00;100698.94;8383522;28;19948;-74
2022/12/19 06:17:53;;;;;;;;;;;;;;;-7.83;100.00;100702.16;8389080;28;19920;-74
2022/12/19 06:21:54;;;;;;;;;;;;;;;-7.85;100.00;100725.09;8374715;28;20570;-74
2022/12/19 06:25:56;;;;;;;;;;;;;;;-7.78;100.00;100721.72;8371947;28;19983;-75
2022/12/19 06:29:56;;;;;;;;;;;;;;;-7.81;100.00;100710.69;8371070;28;20378;-74
2022/12/19 06:33:57;;;;;;;;;;;;;;;-7.82;100.00;100730.00;8378209;28;20061;-74
2022/12/19 06:37:58;;;;;;;;;;;;;;;-7.78;100.00;100715.66;8378277;28;19926;-74
2022/12/19 06:46:19;;;;;;;;;;;;;;;-7.65;100.00;100716.06;8377096;28;20390;-75
2022/12/19 06:50:19;;;;;;;;;;;;;;;-7.60;100.00;100708.56;8373665;28;19947;-74
2022/12/19 06:54:20;;;;;;;;;;;;;;;-7.56;100.00;100704.66;8369625;28;19921;-73
2022/12/19 06:58:21;;;;;;;;;;;;;;;-7.57;100.00;100703.03;8372765;28;19928;-75
2022/12/19 07:02:29;;;;;;;;;;;;;;;-7.48;100.00;100702.09;8389625;28;19925;-73
2022/12/19 07:06:29;;;;;;;;;;;;;;;-7.46;100.00;100700.16;8374907;28;19921;-74
2022/12/19 07:10:33;;;;;;;;;;;;;;;-7.46;100.00;100694.91;8379989;28;19921;-76
2022/12/19 07:14:35;;;;;;;;;;;;;;;-7.42;100.00;100691.00;8348574;28;19920;-75
2022/12/19 07:18:36;;;;;;;;;;;;;;;-7.41;100.00;100689.19;8380526;28;19944;-75
2022/12/19 07:22:37;;;;;;;;;;;;;;;-7.33;100.00;100695.31;8386704;28;19924;-74
2022/12/19 07:26:38;;;;;;;;;;;;;;;-7.21;100.00;100692.41;8383908;28;20007;-74
2022/12/19 07:30:40;;;;;;;;;;;;;;;-7.13;100.00;100671.44;8384236;28;19928;-74
2022/12/19 07:34:41;;;;;;;;;;;;;;;-7.09;100.00;100672.81;8372999;28;19921;-74
2022/12/19 07:38:43;;;;;;;;;;;;;;;-7.01;100.00;100654.44;8355474;28;19995;-74
2022/12/19 07:42:44;;;;;;;;;;;;;;;-6.91;100.00;100668.28;8379843;28;19963;-74
2022/12/19 07:46:45;;;;;;;;;;;;;;;-6.88;100.00;100675.84;8345834;28;19927;-74
2022/12/19 07:50:47;;;;;;;;;;;;;;;-6.83;100.00;100670.94;8376578;28;19927;-74
2022/12/19 07:54:48;;;;;;;;;;;;;;;-6.74;100.00;100675.25;8378908;28;19928;-74
2022/12/19 07:58:49;;;;;;;;;;;;;;;-6.62;100.00;100655.59;8351713;28;20438;-74
2022/12/19 08:02:50;;;;;;;;;;;;;;;-6.55;99.97;100664.44;8377518;28;19920;-75
2022/12/19 08:06:51;;;;;;;;;;;;;;;-6.47;100.00;100667.13;8382750;28;19948;-74
2022/12/19 08:10:52;;;;;;;;;;;;;;;-6.38;100.00;100664.50;8379884;28;19978;-76
2022/12/19 08:14:53;;;;;;;;;;;;;;;-6.26;99.96;100663.19;8381906;28;19974;-73
2022/12/19 08:18:54;;;;;;;;;;;;;;;-6.09;99.76;100654.34;8375471;28;20494;-74
2022/12/19 08:22:55;;;;;;;;;;;;;;;-5.99;99.56;100662.91;8370436;28;19920;-74
2022/12/19 08:26:56;;;;;;;;;;;;;;;-5.87;99.54;100664.22;8365621;28;20350;-74
2022/12/19 08:30:57;;;;;;;;;;;;;;;-5.72;99.47;100657.28;8382110;28;19920;-74
2022/12/19 08:34:58;;;;;;;;;;;;;;;-5.64;99.14;100654.63;8339523;28;19921;-75
2022/12/19 08:38:59;;;;;;;;;;;;;;;-5.62;98.95;100636.88;8379621;28;19944;-73
2022/12/19 08:43:00;;;;;;;;;;;;;;;-5.49;98.89;100624.97;8373702;28;20622;-74
2022/12/19 08:47:01;;;;;;;;;;;;;;;-5.53;98.62;100620.06;8378525;28;19925;-74
2022/12/19 08:51:03;;;;;;;;;;;;;;;-5.45;98.65;100615.78;8376543;28;19920;-74
2022/12/19 08:55:04;;;;;;;;;;;;;;;-5.42;98.54;100604.91;8382552;28;20476;-73
2022/12/19 08:59:08;;;;;;;;;;;;;;;-5.35;98.39;100604.06;8372291;28;20008;-73
2022/12/19 09:03:09;;;;;;;;;;;;;;;-5.17;98.18;100593.28;8381443;28;19921;-74
2022/12/19 09:07:10;;;;;;;;;;;;;;;-5.03;97.88;100600.50;8361695;28;19942;-73
2022/12/19 09:11:13;;;;;;;;;;;;;;;-4.94;97.79;100583.66;8374118;28;19975;-73
2022/12/19 09:15:13;;;;;;;;;;;;;;;-4.84;97.45;100584.25;8377234;28;20278;-73
2022/12/19 09:19:15;;;;;;;;;;;;;;;-4.76;97.38;100581.56;8372883;28;19929;-74
2022/12/19 09:23:16;;;;;;;;;;;;;;;-4.69;97.04;100566.69;8356944;28;19924;-73
2022/12/19 09:27:17;;;;;;;;;;;;;;;-4.56;96.88;100573.22;8370758;28;19967;-74
2022/12/19 09:31:19;;;;;;;;;;;;;;;-4.50;96.16;100569.88;8382717;28;20337;-73
2022/12/19 09:35:20;;;;;;;;;;;;;;;-4.40;96.24;100565.19;8373295;28;19920;-74
2022/12/19 09:39:21;;;;;;;;;;;;;;;-4.24;95.50;100572.97;8383179;28;19920;-75
2022/12/19 09:43:45;;;;;;;;;;;;;;;-4.17;95.05;100565.97;8307479;28;1687316;-72
2022/12/19 09:47:46;;;;;;;;;;;;;;;-4.01;95.02;100544.72;8381620;28;19920;-73
2022/12/19 09:51:56;;;;;;;;;;;;;;;-3.94;95.29;100529.81;8388979;28;20035;-74
2022/12/19 09:55:58;;;;;;;;;;;;;;;-3.91;95.64;100524.16;8379864;28;20321;-74
2022/12/19 10:00:15;;;;;;;;;;;;;;;-3.84;95.74;100527.75;8377405;28;19920;-74
2022/12/19 10:04:17;;;;;;;;;;;;;;;-3.73;95.56;100520.38;8342987;28;19981;-73
2022/12/19 10:08:19;;;;;;;;;;;;;;;-3.66;95.87;100516.00;8273481;28;19929;-73
2022/12/19 10:12:26;;;;;;;;;;;;;;;-3.64;95.75;100519.25;8274090;28;20320;-73
2022/12/19 10:16:38;;;;;;;;;;;;;;;-3.56;95.54;100519.19;8277697;28;20005;-73
2022/12/19 10:20:41;;;;;;;;;;;;;;;-3.54;94.84;100498.69;8273185;28;19921;-73
2022/12/19 10:24:42;;;;;;;;;;;;;;;-3.45;94.51;100497.59;8258166;28;19936;-75
2022/12/19 10:29:05;;;;;;;;;;;;;;;-3.38;94.73;100493.19;8274492;28;20012;-74
2022/12/19 10:33:12;;;;;;;;;;;;;;;-3.27;94.22;100474.25;8265793;28;19932;-74
2022/12/19 10:37:20;;;;;;;;;;;;;;;-3.15;93.17;100478.03;8303197;28;19963;-75
2022/12/19 10:41:22;;;;;;;;;;;;;;;-3.06;93.01;100476.91;8325277;28;20326;-74
2022/12/19 10:45:24;;;;;;;;;;;;;;;-2.91;92.73;100479.53;8369300;28;19935;-74
2022/12/19 10:49:25;;;;;;;;;;;;;;;-2.85;92.35;100477.94;8387446;28;19924;-75
2022/12/19 10:53:28;;;;;;;;;;;;;;;-2.70;91.95;100481.38;8392971;28;20283;-74
2022/12/19 10:57:28;;;;;;;;;;;;;;;-2.60;92.26;100466.81;8384805;28;20373;-74
2022/12/19 11:01:37;;;;;;;;;;;;;;;-2.53;91.24;100472.13;8379210;28;19920;-74
2022/12/19 11:05:38;;;;;;;;;;;;;;;-2.45;91.24;100453.50;8381059;28;19974;-74
2022/12/19 11:09:40;;;;;;;;;;;;;;;-2.39;90.94;100450.09;8386818;28;19971;-73
2022/12/19 11:13:42;;;;;;;;;;;;;;;-2.40;90.55;100444.97;8388749;28;19926;-73
2022/12/19 11:17:43;;;;;;;;;;;;;;;-2.30;90.81;100446.28;8379246;28;19927;-75
2022/12/19 11:21:43;;;;;;;;;;;;;;;-2.21;90.24;100439.81;8382371;28;19955;-74
2022/12/19 11:25:45;;;;;;;;;;;;;;;-2.07;90.28;100424.88;8387564;28;20441;-73
2022/12/19 11:29:46;;;;;;;;;;;;;;;-1.95;89.67;100417.16;8379718;28;19970;-74
2022/12/19 11:33:52;;;;;;;;;;;;;;;-1.87;89.84;100403.78;8355915;28;19965;-74
2022/12/19 11:37:53;;;;;;;;;;;;;;;-1.81;89.35;100403.00;8393450;28;19927;-73
2022/12/19 11:41:57;;;;;;;;;;;;;;;-1.71;89.12;100398.97;8377811;28;20271;-73
2022/12/19 11:46:05;;;;;;;;;;;;;;;-1.66;88.51;100390.44;8387198;28;19920;-74
2022/12/19 11:50:25;;;;;;;;;;;;;;;-1.63;88.40;100379.44;8385700;28;19920;-74
2022/12/19 11:54:29;;;;;;;;;;;;;;;-1.56;87.99;100374.97;8380325;28;19927;-74
2022/12/19 11:58:29;;;;;;;;;;;;;;;-1.52;87.14;100370.91;8387959;28;19955;-74
2022/12/19 12:02:43;;;;;;;;;;;;;;;-1.37;87.10;100353.00;8382133;28;20363;-74
2022/12/19 12:06:50;;;;;;;;;;;;;;;-1.34;86.69;100347.31;8376387;28;20284;-73
2022/12/19 12:11:03;;;;;;;;;;;;;;;-1.32;86.29;100349.75;8386466;28;19927;-74
2022/12/19 12:15:06;;;;;;;;;;;;;;;-1.29;85.36;100354.66;8381024;28;19927;-74
2022/12/19 12:19:11;;;;;;;;;;;;;;;-1.10;84.56;100363.66;8384295;28;20360;-74
2022/12/19 12:23:31;;;;;;;;;;;;;;;-0.97;84.22;100364.50;8359386;28;19920;-74
2022/12/19 12:27:46;;;;;;;;;;;;;;;-0.90;83.67;100369.81;8379756;28;19928;-74
2022/12/19 12:31:56;;;;;;;;;;;;;;;-0.79;83.07;100366.53;8388832;28;19924;-73
2022/12/19 12:35:59;;;;;;;;;;;;;;;-0.78;83.02;100368.16;8344471;28;19921;-74
2022/12/19 12:40:12;;;;;;;;;;;;;;;-0.72;82.75;100362.03;8378629;28;19964;-74
2022/12/19 12:44:14;;;;;;;;;;;;;;;-0.78;82.99;100360.22;8379231;28;19920;-73
2022/12/19 12:48:24;;;;;;;;;;;;;;;-0.91;83.09;100341.66;8385705;28;19981;-73
2022/12/19 12:53:06;;;;;;;;;;;;;;;-0.90;82.99;100338.00;8386346;28;20016;-73
2022/12/19 12:57:37;;;;;;;;;;;;;;;-0.93;82.66;100317.16;8314195;28;20360;-73
2022/12/19 13:01:38;;;;;;;;;;;;;;;-1.03;83.67;100312.28;8195862;28;20006;-73
2022/12/19 13:05:45;;;;;;;;;;;;;;;-1.07;83.92;100304.94;8163462;28;20286;-73
2022/12/19 13:09:50;;;;;;;;;;;;;;;-1.03;83.81;100292.91;8195754;29;20009;-73
2022/12/19 13:13:54;;;;;;;;;;;;;;;-0.84;83.64;100284.09;8178550;29;19981;-74
2022/12/19 13:17:55;;;;;;;;;;;;;;;-0.74;83.60;100284.50;8189712;29;20648;-73
2022/12/19 13:22:08;;;;;;;;;;;;;;;-0.71;83.61;100292.06;8195894;28;19922;-74
2022/12/19 13:26:22;;;;;;;;;;;;;;;-0.87;84.14;100281.88;8218897;28;20047;-74
2022/12/19 13:30:23;;;;;;;;;;;;;;;-1.00;85.73;100271.28;8286848;28;19925;-74
2022/12/19 13:34:30;;;;;;;;;;;;;;;-1.05;85.62;100281.69;8266236;28;20049;-73
2022/12/19 13:38:31;;;;;;;;;;;;;;;-1.10;86.08;100284.13;8357881;28;19978;-74
2022/12/19 13:46:52;;;;;;;;;;;;;;;-1.15;86.68;100291.88;8348893;28;19924;-75
2022/12/19 13:50:54;;;;;;;;;;;;;;;-1.16;86.64;100295.56;8371710;28;19921;-73
2022/12/19 13:54:55;;;;;;;;;;;;;;;-1.17;87.16;100288.63;8369277;28;19946;-74
2022/12/19 13:58:57;;;;;;;;;;;;;;;-1.25;87.29;100280.88;8374057;28;20366;-73
2022/12/19 14:02:58;;;;;;;;;;;;;;;-1.27;88.05;100273.94;8361273;28;19920;-73
2022/12/19 14:07:01;;;;;;;;;;;;;;;-1.27;87.91;100258.03;8376558;28;20371;-74
2022/12/19 14:11:02;;;;;;;;;;;;;;;-1.15;87.70;100260.88;8374674;28;19943;-74
2022/12/19 14:15:18;;;;;;;;;;;;;;;-0.99;86.25;100259.66;8347813;28;19920;-74
2022/12/19 14:19:29;;;;;;;;;;;;;;;-0.92;85.38;100273.72;8366639;28;19924;-74
2022/12/19 14:23:30;;;;;;;;;;;;;;;-0.88;85.38;100266.97;8372501;28;19924;-74
2022/12/19 14:27:36;;;;;;;;;;;;;;;-0.77;84.24;100269.00;8375988;28;19936;-75
2022/12/19 14:31:37;;;;;;;;;;;;;;;-0.73;84.10;100280.84;8353986;28;19921;-74
2022/12/19 14:35:42;;;;;;;;;;;;;;;-0.70;83.72;100280.44;8362432;28;19928;-75
2022/12/19 14:39:43;;;;;;;;;;;;;;;-0.66;83.63;100289.59;8370293;28;19921;-73
2022/12/19 14:43:46;;;;;;;;;;;;;;;-0.65;83.99;100293.91;8370260;28;19966;-74
2022/12/19 14:47:47;;;;;;;;;;;;;;;-0.68;84.26;100281.03;8350187;28;19920;-74
2022/12/19 14:51:48;;;;;;;;;;;;;;;-0.74;84.15;100268.59;8342626;28;19921;-74
2022/12/19 14:55:58;;;;;;;;;;;;;;;-0.80;84.47;100269.44;8345267;28;19927;-73
2022/12/19 14:59:59;;;;;;;;;;;;;;;-0.82;84.01;100271.47;8343666;28;20314;-74
2022/12/19 15:04:01;;;;;;;;;;;;;;;-0.83;83.94;100272.47;8349279;28;19967;-74
2022/12/19 15:08:02;;;;;;;;;;;;;;;-0.86;84.11;100259.66;8347600;28;19925;-74
2022/12/19 15:16:30;;;;;;;;;;;;;;;-0.94;84.63;100241.28;8340764;28;19954;-73
2022/12/19 15:20:31;;;;;;;;;;;;;;;-0.98;85.03;100245.38;8343928;28;20015;-74
2022/12/19 15:24:32;;;;;;;;;;;;;;;-1.03;85.24;100237.22;8347092;28;19921;-73
2022/12/19 15:28:37;;;;;;;;;;;;;;;-1.03;85.07;100231.91;8345252;28;19920;-74
2022/12/19 15:32:38;;;;;;;;;;;;;;;-1.04;85.02;100251.50;8357900;28;19925;-74
2022/12/19 15:36:40;;;;;;;;;;;;;;;-1.02;84.82;100254.78;8351484;28;20294;-74
2022/12/19 15:40:41;;;;;;;;;;;;;;;-1.04;85.11;100235.59;8372585;28;19927;-74
2022/12/19 15:44:43;;;;;;;;;;;;;;;-1.05;85.98;100233.94;8390712;28;20352;-74
2022/12/19 15:48:45;;;;;;;;;;;;;;;-1.04;86.09;100232.94;8374075;28;19921;-73
2022/12/19 15:52:46;;;;;;;;;;;;;;;-1.05;86.63;100228.66;8382737;28;20042;-73
2022/12/19 15:56:48;;;;;;;;;;;;;;;-1.03;86.97;100216.03;8374159;28;19927;-73
2022/12/19 16:00:56;;;;;;;;;;;;;;;-1.08;87.71;100207.88;8377478;28;19920;-75
2022/12/19 16:04:58;;;;;;;;;;;;;;;-1.09;88.42;100200.94;8388002;28;19921;-75
2022/12/19 16:09:00;;;;;;;;;;;;;;;-1.08;88.51;100191.97;8356142;28;19925;-73
2022/12/19 16:13:01;;;;;;;;;;;;;;;-1.08;88.71;100197.25;8344121;28;20390;-74
2022/12/19 16:17:02;;;;;;;;;;;;;;;-1.10;89.54;100188.69;8338640;28;20023;-71
2022/12/19 16:21:02;;;;;;;;;;;;;;;-1.09;88.96;100185.03;8345911;28;19921;-72
2022/12/19 16:25:03;;;;;;;;;;;;;;;-1.11;89.31;100187.88;8353451;28;19921;-72
2022/12/19 16:29:05;;;;;;;;;;;;;;;-1.13;89.38;100173.22;8350094;28;20248;-71
2022/12/19 16:33:08;;;;;;;;;;;;;;;-1.11;89.90;100181.78;8339851;28;19951;-71
2022/12/19 16:37:10;;;;;;;;;;;;;;;-1.07;89.72;100183.81;8334633;28;19920;-71
2022/12/19 16:41:17;;;;;;;;;;;;;;;-1.08;90.10;100170.75;8336906;28;19928;-71
2022/12/19 16:45:23;;;;;;;;;;;;;;;-1.07;89.74;100177.69;8292274;28;19973;-72
2022/12/19 16:49:24;;;;;;;;;;;;;;;-1.05;90.20;100170.31;8311461;28;20338;-72
2022/12/19 16:53:25;;;;;;;;;;;;;;;-0.98;89.70;100171.13;8318542;28;19929;-72
2022/12/19 16:57:26;;;;;;;;;;;;;;;-0.94;90.11;100172.34;8314496;28;19925;-71
2022/12/19 17:01:27;;;;;;;;;;;;;;;-0.95;90.29;100168.06;8324284;28;19921;-71
2022/12/19 17:05:28;;;;;;;;;;;;;;;-0.99;90.48;100172.16;8309392;28;20020;-72
2022/12/19 17:09:29;;;;;;;;;;;;;;;-0.95;90.60;100181.31;8314087;28;19975;-72
2022/12/19 17:13:30;;;;;;;;;;;;;;;-0.97;90.91;100172.78;8281153;28;20004;-72
2022/12/19 17:17:31;;;;;;;;;;;;;;;-0.93;90.79;100184.59;8371227;28;20012;-72
2022/12/19 17:21:32;;;;;;;;;;;;;;;-0.87;90.42;100170.50;8381222;28;20279;-72
2022/12/19 17:25:32;;;;;;;;;;;;;;;-0.87;90.38;100170.50;8368589;28;20278;-73
2022/12/19 17:29:33;;;;;;;;;;;;;;;-0.89;90.66;100169.88;8378412;28;20007;-72
2022/12/19 17:33:35;;;;;;;;;;;;;;;-0.84;90.01;100164.75;8381214;28;19921;-72
2022/12/19 17:37:36;;;;;;;;;;;;;;;-0.82;90.41;100165.38;8379487;28;19928;-72
2022/12/19 17:41:37;;;;;;;;;;;;;;;-0.81;90.82;100167.03;8371767;28;19970;-72
2022/12/19 17:45:37;;;;;;;;;;;;;;;-0.80;90.76;100158.03;8367162;28;20359;-71
2022/12/19 17:49:39;;;;;;;;;;;;;;;-0.78;90.90;100166.59;8371519;28;20410;-72
2022/12/19 17:53:39;;;;;;;;;;;;;;;-0.74;90.81;100141.25;8377642;28;20016;-72
2022/12/19 17:57:41;;;;;;;;;;;;;;;-0.69;90.93;100133.53;8385407;28;20027;-73
2022/12/19 18:01:41;;;;;;;;;;;;;;;-0.72;90.90;100133.91;8384479;28;19927;-72
2022/12/19 18:05:43;;;;;;;;;;;;;;;-0.72;91.11;100139.22;8385883;28;19967;-72
2022/12/19 18:09:43;;;;;;;;;;;;;;;-0.68;90.94;100145.72;8350038;28;19968;-72
2022/12/19 18:13:44;;;;;;;;;;;;;;;-0.69;91.01;100149.44;8359722;28;19985;-72
2022/12/19 18:17:46;;;;;;;;;;;;;;;-0.67;91.21;100144.72;8380317;28;19927;-72
2022/12/19 18:21:50;;;;;;;;;;;;;;;-0.64;91.07;100152.28;8350493;28;20446;-71
2022/12/19 18:25:51;;;;;;;;;;;;;;;-0.65;91.20;100134.72;8385331;28;20011;-74
2022/12/19 18:29:52;;;;;;;;;;;;;;;-0.59;90.43;100139.19;8363665;28;19920;-73
2022/12/19 18:33:53;;;;;;;;;;;;;;;-0.59;90.81;100133.88;8381462;28;19967;-72
2022/12/19 18:37:54;;;;;;;;;;;;;;;-0.58;90.86;100124.88;8377759;28;19920;-73
2022/12/19 18:41:55;;;;;;;;;;;;;;;-0.55;90.24;100119.16;8386198;28;20011;-72
2022/12/19 18:45:56;;;;;;;;;;;;;;;-0.49;90.40;100118.31;8386403;28;19920;-71
2022/12/19 18:49:56;;;;;;;;;;;;;;;-0.46;91.04;100111.75;8384728;28;19990;-71
2022/12/19 18:53:58;;;;;;;;;;;;;;;-0.52;92.80;100118.72;8378329;28;19927;-71
2022/12/19 18:58:01;;;;;;;;;;;;;;;-0.54;94.32;100126.09;8383758;28;19920;-72
2022/12/19 19:02:08;;;;;;;;;;;;;;;-0.49;95.09;100133.41;8346678;28;20405;-73
2022/12/19 19:06:16;;;;;;;;;;;;;;;-0.56;96.37;100117.53;8383564;28;20341;-72
2022/12/19 19:10:24;;;;;;;;;;;;;;;-0.56;96.93;100109.56;8313916;28;19948;-72
2022/12/19 19:14:25;;;;;;;;;;;;;;;-0.58;97.15;100108.94;8306931;28;19930;-72
2022/12/19 19:18:46;;;;;;;;;;;;;;;-0.59;98.88;100125.91;8320752;28;19961;-71
2022/12/19 19:22:47;;;;;;;;;;;;;;;-0.50;98.75;100126.47;8314857;28;20252;-71
2022/12/19 19:26:48;;;;;;;;;;;;;;;-0.54;99.48;100126.09;8314683;28;20404;-72
2022/12/19 19:30:49;;;;;;;;;;;;;;;-0.55;100.00;100119.16;8308849;28;19929;-72
2022/12/19 19:34:50;;;;;;;;;;;;;;;-0.53;100.00;100125.06;8317193;28;19925;-72
2022/12/19 19:38:52;;;;;;;;;;;;;;;-0.45;100.00;100106.25;8318364;28;20007;-71
2022/12/19 19:42:53;;;;;;;;;;;;;;;-0.46;100.00;100120.53;8376236;28;19981;-72
2022/12/19 19:46:54;;;;;;;;;;;;;;;-0.50;100.00;100116.69;8381183;28;20374;-74
2022/12/19 19:50:55;;;;;;;;;;;;;;;-0.48;100.00;100114.63;8383488;28;19924;-72
2022/12/19 19:54:56;;;;;;;;;;;;;;;-0.49;100.00;100113.00;8383846;28;20451;-72
2022/12/19 19:58:59;;;;;;;;;;;;;;;-0.44;100.00;100110.53;8379682;28;19975;-72
2022/12/19 20:03:00;;;;;;;;;;;;;;;-0.47;100.00;100104.81;8384019;28;19924;-71
2022/12/19 20:07:01;;;;;;;;;;;;;;;-0.45;100.00;100092.97;8393784;28;20456;-72
2022/12/19 20:11:03;;;;;;;;;;;;;;;-0.40;100.00;100086.22;8376844;28;19934;-73
2022/12/19 20:15:04;;;;;;;;;;;;;;;-0.37;100.00;100093.75;8374129;28;19921;-72
2022/12/19 20:19:05;;;;;;;;;;;;;;;-0.39;100.00;100079.88;8385774;28;19920;-72
2022/12/19 20:23:06;;;;;;;;;;;;;;;-0.40;100.00;100089.69;8382185;28;19981;-72
2022/12/19 20:27:08;;;;;;;;;;;;;;;-0.39;100.00;100075.38;8341921;28;19928;-72
2022/12/19 20:31:10;;;;;;;;;;;;;;;-0.39;100.00;100074.56;8381904;28;19960;-72
2022/12/19 20:35:11;;;;;;;;;;;;;;;-0.40;100.00;100064.97;8345481;28;19974;-71
2022/12/19 20:39:20;;;;;;;;;;;;;;;-0.36;100.00;100058.22;8376855;28;20495;-73
2022/12/19 20:43:23;;;;;;;;;;;;;;;-0.30;100.00;100057.34;8381950;28;19921;-75
2022/12/19 20:47:25;;;;;;;;;;;;;;;-0.35;100.00;100067.81;8346869;28;20011;-72
2022/12/19 20:51:27;;;;;;;;;;;;;;;-0.33;100.00;100073.72;8384666;28;19972;-73
2022/12/19 20:55:28;;;;;;;;;;;;;;;-0.27;100.00;100072.88;8386522;28;19921;-72
2022/12/19 20:59:29;;;;;;;;;;;;;;;-0.27;100.00;100068.38;8388686;28;19920;-73